sensor_id;sensor_type;location;lat;lon;timestamp;temperature;humidity
62424;DHT22;48463;43.604;3.872;2023-06-24T00:01:50;23.60;78.80
62424;DHT22;48463;43.604;3.872;2023-06-24T00:04:16;23.60;78.90
62424;DHT22;48463;43.604;3.872;2023-06-24T00:06:44;23.60;79.30
62424;DHT22;48463;43.604;3.872;2023-06-24T00:09:10;23.50;79.40
62424;DHT22;48463;43.604;3.872;2023-06-24T00:11:35;23.60;79.60
62424;DHT22;48463;43.604;3.872;2023-06-24T00:14:01;23.60;79.80
62424;DHT22;48463;43.604;3.872;2023-06-24T00:16:27;23.50;80.00
62424;DHT22;48463;43.604;3.872;2023-06-24T00:18:56;23.60;80.20
62424;DHT22;48463;43.604;3.872;2023-06-24T00:21:26;23.50;80.50
62424;DHT22;48463;43.604;3.872;2023-06-24T00:23:58;23.50;80.60
62424;DHT22;48463;43.604;3.872;2023-06-24T00:26:25;23.40;80.90
62424;DHT22;48463;43.604;3.872;2023-06-24T00:28:51;23.30;81.30
62424;DHT22;48463;43.604;3.872;2023-06-24T00:31:17;23.30;81.60
62424;DHT22;48463;43.604;3.872;2023-06-24T00:33:42;23.30;81.50
62424;DHT22;48463;43.604;3.872;2023-06-24T00:36:08;23.30;81.70
62424;DHT22;48463;43.604;3.872;2023-06-24T00:38:37;23.40;81.80
62424;DHT22;48463;43.604;3.872;2023-06-24T00:41:03;23.30;81.50
62424;DHT22;48463;43.604;3.872;2023-06-24T00:43:29;23.30;81.40
62424;DHT22;48463;43.604;3.872;2023-06-24T00:45:58;23.20;81.80
62424;DHT22;48463;43.604;3.872;2023-06-24T00:48:24;23.20;82.00
62424;DHT22;48463;43.604;3.872;2023-06-24T00:50:50;23.20;82.00
62424;DHT22;48463;43.604;3.872;2023-06-24T00:53:19;23.10;82.20
62424;DHT22;48463;43.604;3.872;2023-06-24T00:55:46;23.00;82.40
62424;DHT22;48463;43.604;3.872;2023-06-24T00:58:13;22.90;82.90
62424;DHT22;48463;43.604;3.872;2023-06-24T01:00:42;22.80;83.30
62424;DHT22;48463;43.604;3.872;2023-06-24T01:03:11;22.70;83.60
62424;DHT22;48463;43.604;3.872;2023-06-24T01:05:43;22.70;83.80
62424;DHT22;48463;43.604;3.872;2023-06-24T01:08:08;22.60;84.10
62424;DHT22;48463;43.604;3.872;2023-06-24T01:10:39;22.60;84.10
62424;DHT22;48463;43.604;3.872;2023-06-24T01:13:05;22.60;84.60
62424;DHT22;48463;43.604;3.872;2023-06-24T01:15:30;22.50;84.90
62424;DHT22;48463;43.604;3.872;2023-06-24T01:18:05;22.40;85.10
62424;DHT22;48463;43.604;3.872;2023-06-24T01:23:42;22.40;85.60
62424;DHT22;48463;43.604;3.872;2023-06-24T01:32:11;22.30;86.20
62424;DHT22;48463;43.604;3.872;2023-06-24T01:34:59;22.20;86.10
62424;DHT22;48463;43.604;3.872;2023-06-24T01:40:07;22.20;86.80
62424;DHT22;48463;43.604;3.872;2023-06-24T01:42:41;22.20;86.90
62424;DHT22;48463;43.604;3.872;2023-06-24T01:45:19;22.20;87.00
62424;DHT22;48463;43.604;3.872;2023-06-24T01:47:47;22.10;87.20
62424;DHT22;48463;43.604;3.872;2023-06-24T01:50:16;22.00;87.70
62424;DHT22;48463;43.604;3.872;2023-06-24T01:52:44;22.00;88.20
62424;DHT22;48463;43.604;3.872;2023-06-24T01:55:13;21.90;88.50
62424;DHT22;48463;43.604;3.872;2023-06-24T01:57:41;21.90;88.70
62424;DHT22;48463;43.604;3.872;2023-06-24T02:00:09;21.90;88.90
62424;DHT22;48463;43.604;3.872;2023-06-24T02:02:37;21.80;89.10
62424;DHT22;48463;43.604;3.872;2023-06-24T02:05:04;21.80;89.50
62424;DHT22;48463;43.604;3.872;2023-06-24T02:07:31;21.80;89.70
62424;DHT22;48463;43.604;3.872;2023-06-24T02:09:59;21.80;89.60
62424;DHT22;48463;43.604;3.872;2023-06-24T02:12:26;21.70;89.90
62424;DHT22;48463;43.604;3.872;2023-06-24T02:14:53;21.70;89.80
62424;DHT22;48463;43.604;3.872;2023-06-24T02:17:19;21.70;90.00
62424;DHT22;48463;43.604;3.872;2023-06-24T02:19:47;21.60;90.10
62424;DHT22;48463;43.604;3.872;2023-06-24T02:22:14;21.70;90.20
62424;DHT22;48463;43.604;3.872;2023-06-24T02:24:41;21.70;90.20
62424;DHT22;48463;43.604;3.872;2023-06-24T02:27:07;21.70;90.20
62424;DHT22;48463;43.604;3.872;2023-06-24T02:29:35;21.70;90.30
62424;DHT22;48463;43.604;3.872;2023-06-24T02:32:02;21.80;90.30
62424;DHT22;48463;43.604;3.872;2023-06-24T02:34:28;21.80;90.30
62424;DHT22;48463;43.604;3.872;2023-06-24T02:36:54;21.80;90.20
62424;DHT22;48463;43.604;3.872;2023-06-24T02:39:20;21.80;90.20
62424;DHT22;48463;43.604;3.872;2023-06-24T02:41:46;21.80;90.30
62424;DHT22;48463;43.604;3.872;2023-06-24T02:44:13;21.90;90.20
62424;DHT22;48463;43.604;3.872;2023-06-24T02:46:39;21.90;90.20
62424;DHT22;48463;43.604;3.872;2023-06-24T02:49:07;21.90;90.20
62424;DHT22;48463;43.604;3.872;2023-06-24T02:51:34;21.90;90.10
62424;DHT22;48463;43.604;3.872;2023-06-24T02:54:00;21.90;90.10
62424;DHT22;48463;43.604;3.872;2023-06-24T02:56:27;21.90;90.10
62424;DHT22;48463;43.604;3.872;2023-06-24T02:58:53;22.00;90.00
62424;DHT22;48463;43.604;3.872;2023-06-24T03:01:20;22.00;89.40
62424;DHT22;48463;43.604;3.872;2023-06-24T03:03:53;22.10;89.40
62424;DHT22;48463;43.604;3.872;2023-06-24T03:06:19;22.20;89.70
62424;DHT22;48463;43.604;3.872;2023-06-24T03:08:45;22.00;90.10
62424;DHT22;48463;43.604;3.872;2023-06-24T03:11:14;21.90;90.50
62424;DHT22;48463;43.604;3.872;2023-06-24T03:13:41;21.60;90.90
62424;DHT22;48463;43.604;3.872;2023-06-24T03:16:06;21.60;91.10
62424;DHT22;48463;43.604;3.872;2023-06-24T03:18:43;21.40;91.20
62424;DHT22;48463;43.604;3.872;2023-06-24T03:21:09;21.30;91.30
62424;DHT22;48463;43.604;3.872;2023-06-24T03:23:35;21.40;91.30
62424;DHT22;48463;43.604;3.872;2023-06-24T03:26:01;21.40;91.30
62424;DHT22;48463;43.604;3.872;2023-06-24T03:28:32;21.40;91.20
62424;DHT22;48463;43.604;3.872;2023-06-24T03:30:58;21.40;91.10
62424;DHT22;48463;43.604;3.872;2023-06-24T03:33:24;21.50;90.90
62424;DHT22;48463;43.604;3.872;2023-06-24T03:35:52;21.60;90.80
62424;DHT22;48463;43.604;3.872;2023-06-24T03:38:18;21.60;90.60
62424;DHT22;48463;43.604;3.872;2023-06-24T03:40:43;21.60;90.70
62424;DHT22;48463;43.604;3.872;2023-06-24T03:43:09;21.60;90.70
62424;DHT22;48463;43.604;3.872;2023-06-24T03:45:35;21.60;90.80
62424;DHT22;48463;43.604;3.872;2023-06-24T03:48:01;21.60;90.80
62424;DHT22;48463;43.604;3.872;2023-06-24T03:50:26;21.60;90.70
62424;DHT22;48463;43.604;3.872;2023-06-24T03:52:52;21.60;90.80
62424;DHT22;48463;43.604;3.872;2023-06-24T03:55:17;21.50;90.90
62424;DHT22;48463;43.604;3.872;2023-06-24T03:57:43;21.40;91.20
62424;DHT22;48463;43.604;3.872;2023-06-24T04:00:09;21.30;91.30
62424;DHT22;48463;43.604;3.872;2023-06-24T04:02:41;21.30;91.60
62424;DHT22;48463;43.604;3.872;2023-06-24T04:05:07;21.10;91.80
62424;DHT22;48463;43.604;3.872;2023-06-24T04:07:33;21.00;92.00
62424;DHT22;48463;43.604;3.872;2023-06-24T04:10:02;20.90;92.00
62424;DHT22;48463;43.604;3.872;2023-06-24T04:12:29;21.00;92.00
62424;DHT22;48463;43.604;3.872;2023-06-24T04:14:55;21.00;92.00
62424;DHT22;48463;43.604;3.872;2023-06-24T04:17:21;21.10;91.90
62424;DHT22;48463;43.604;3.872;2023-06-24T04:19:46;21.10;91.80
62424;DHT22;48463;43.604;3.872;2023-06-24T04:22:12;21.20;91.90
62424;DHT22;48463;43.604;3.872;2023-06-24T04:24:38;21.20;91.90
62424;DHT22;48463;43.604;3.872;2023-06-24T04:27:05;21.30;91.70
62424;DHT22;48463;43.604;3.872;2023-06-24T04:29:30;21.30;91.60
62424;DHT22;48463;43.604;3.872;2023-06-24T04:31:57;21.30;91.70
62424;DHT22;48463;43.604;3.872;2023-06-24T04:34:23;21.20;91.80
62424;DHT22;48463;43.604;3.872;2023-06-24T04:36:48;21.20;91.80
62424;DHT22;48463;43.604;3.872;2023-06-24T04:39:15;21.20;91.90
62424;DHT22;48463;43.604;3.872;2023-06-24T04:41:40;21.20;91.90
62424;DHT22;48463;43.604;3.872;2023-06-24T04:44:07;21.20;91.90
62424;DHT22;48463;43.604;3.872;2023-06-24T04:46:33;21.20;91.80
62424;DHT22;48463;43.604;3.872;2023-06-24T04:49:00;21.20;91.90
62424;DHT22;48463;43.604;3.872;2023-06-24T04:51:25;21.30;91.80
62424;DHT22;48463;43.604;3.872;2023-06-24T04:53:51;21.30;92.00
62424;DHT22;48463;43.604;3.872;2023-06-24T04:56:17;21.30;91.70
62424;DHT22;48463;43.604;3.872;2023-06-24T04:58:42;21.30;91.80
62424;DHT22;48463;43.604;3.872;2023-06-24T05:01:08;21.30;91.80
62424;DHT22;48463;43.604;3.872;2023-06-24T05:03:34;21.40;91.80
62424;DHT22;48463;43.604;3.872;2023-06-24T05:05:59;21.50;91.80
62424;DHT22;48463;43.604;3.872;2023-06-24T05:08:25;21.40;91.60
62424;DHT22;48463;43.604;3.872;2023-06-24T05:10:50;21.40;91.50
62424;DHT22;48463;43.604;3.872;2023-06-24T05:13:16;21.40;91.80
62424;DHT22;48463;43.604;3.872;2023-06-24T05:15:42;21.30;91.80
62424;DHT22;48463;43.604;3.872;2023-06-24T05:18:08;21.40;91.80
62424;DHT22;48463;43.604;3.872;2023-06-24T05:20:33;21.40;91.80
62424;DHT22;48463;43.604;3.872;2023-06-24T05:22:59;21.50;91.60
62424;DHT22;48463;43.604;3.872;2023-06-24T05:25:24;21.60;91.50
62424;DHT22;48463;43.604;3.872;2023-06-24T05:27:50;21.70;91.50
62424;DHT22;48463;43.604;3.872;2023-06-24T05:30:16;21.80;91.30
62424;DHT22;48463;43.604;3.872;2023-06-24T05:32:41;21.90;91.10
62424;DHT22;48463;43.604;3.872;2023-06-24T05:35:07;22.00;91.30
62424;DHT22;48463;43.604;3.872;2023-06-24T05:37:33;22.00;90.80
62424;DHT22;48463;43.604;3.872;2023-06-24T05:39:59;22.10;90.90
62424;DHT22;48463;43.604;3.872;2023-06-24T05:42:27;22.20;90.70
62424;DHT22;48463;43.604;3.872;2023-06-24T05:44:53;22.30;90.90
62424;DHT22;48463;43.604;3.872;2023-06-24T05:47:18;22.30;90.70
62424;DHT22;48463;43.604;3.872;2023-06-24T05:49:44;22.40;90.70
62424;DHT22;48463;43.604;3.872;2023-06-24T05:52:11;22.50;90.80
62424;DHT22;48463;43.604;3.872;2023-06-24T05:54:37;22.60;90.50
62424;DHT22;48463;43.604;3.872;2023-06-24T05:57:03;22.60;90.40
62424;DHT22;48463;43.604;3.872;2023-06-24T05:59:32;22.80;90.30
62424;DHT22;48463;43.604;3.872;2023-06-24T06:01:57;22.90;90.10
62424;DHT22;48463;43.604;3.872;2023-06-24T06:04:23;23.00;90.10
62424;DHT22;48463;43.604;3.872;2023-06-24T06:06:49;23.10;90.30
62424;DHT22;48463;43.604;3.872;2023-06-24T06:09:14;23.10;90.00
62424;DHT22;48463;43.604;3.872;2023-06-24T06:11:40;23.10;90.00
62424;DHT22;48463;43.604;3.872;2023-06-24T06:14:07;23.20;90.00
62424;DHT22;48463;43.604;3.872;2023-06-24T06:16:32;23.30;90.10
62424;DHT22;48463;43.604;3.872;2023-06-24T06:18:58;23.40;89.90
62424;DHT22;48463;43.604;3.872;2023-06-24T06:21:24;23.50;90.00
62424;DHT22;48463;43.604;3.872;2023-06-24T06:23:49;23.60;88.90
62424;DHT22;48463;43.604;3.872;2023-06-24T06:26:15;23.70;88.20
62424;DHT22;48463;43.604;3.872;2023-06-24T06:28:41;23.90;87.50
62424;DHT22;48463;43.604;3.872;2023-06-24T06:31:07;24.00;87.00
62424;DHT22;48463;43.604;3.872;2023-06-24T06:33:32;24.10;86.20
62424;DHT22;48463;43.604;3.872;2023-06-24T06:35:58;24.10;86.20
62424;DHT22;48463;43.604;3.872;2023-06-24T06:38:24;24.10;85.40
62424;DHT22;48463;43.604;3.872;2023-06-24T06:40:50;24.20;85.80
62424;DHT22;48463;43.604;3.872;2023-06-24T06:43:16;24.40;85.60
62424;DHT22;48463;43.604;3.872;2023-06-24T06:45:41;24.40;86.20
62424;DHT22;48463;43.604;3.872;2023-06-24T06:48:07;24.40;86.60
62424;DHT22;48463;43.604;3.872;2023-06-24T06:50:34;24.50;85.90
62424;DHT22;48463;43.604;3.872;2023-06-24T06:53:00;24.60;86.30
62424;DHT22;48463;43.604;3.872;2023-06-24T06:55:26;24.70;86.00
62424;DHT22;48463;43.604;3.872;2023-06-24T06:57:52;24.70;86.50
62424;DHT22;48463;43.604;3.872;2023-06-24T07:00:18;24.80;87.10
62424;DHT22;48463;43.604;3.872;2023-06-24T07:02:44;24.70;87.90
62424;DHT22;48463;43.604;3.872;2023-06-24T07:05:09;24.60;88.40
62424;DHT22;48463;43.604;3.872;2023-06-24T07:07:37;24.60;87.50
62424;DHT22;48463;43.604;3.872;2023-06-24T07:10:04;24.60;87.40
62424;DHT22;48463;43.604;3.872;2023-06-24T07:12:30;24.90;87.30
62424;DHT22;48463;43.604;3.872;2023-06-24T07:14:56;25.00;85.70
62424;DHT22;48463;43.604;3.872;2023-06-24T07:17:22;25.20;86.10
62424;DHT22;48463;43.604;3.872;2023-06-24T07:19:47;25.10;85.20
62424;DHT22;48463;43.604;3.872;2023-06-24T07:22:14;25.30;85.10
62424;DHT22;48463;43.604;3.872;2023-06-24T07:24:39;25.50;84.40
62424;DHT22;48463;43.604;3.872;2023-06-24T07:27:05;25.60;82.20
62424;DHT22;48463;43.604;3.872;2023-06-24T07:29:31;25.80;81.40
62424;DHT22;48463;43.604;3.872;2023-06-24T07:31:57;25.90;82.00
62424;DHT22;48463;43.604;3.872;2023-06-24T07:34:22;26.00;81.80
62424;DHT22;48463;43.604;3.872;2023-06-24T07:36:48;26.10;80.30
62424;DHT22;48463;43.604;3.872;2023-06-24T07:39:16;26.30;80.00
62424;DHT22;48463;43.604;3.872;2023-06-24T07:41:42;26.40;79.20
62424;DHT22;48463;43.604;3.872;2023-06-24T07:44:08;26.50;77.60
62424;DHT22;48463;43.604;3.872;2023-06-24T07:46:34;26.70;75.70
62424;DHT22;48463;43.604;3.872;2023-06-24T07:49:00;26.80;75.50
62424;DHT22;48463;43.604;3.872;2023-06-24T07:51:25;26.90;75.00
62424;DHT22;48463;43.604;3.872;2023-06-24T07:53:51;26.80;74.60
62424;DHT22;48463;43.604;3.872;2023-06-24T07:56:17;26.90;74.90
62424;DHT22;48463;43.604;3.872;2023-06-24T07:58:43;27.10;74.50
62424;DHT22;48463;43.604;3.872;2023-06-24T08:01:08;26.90;73.50
62424;DHT22;48463;43.604;3.872;2023-06-24T08:03:34;27.20;73.70
62424;DHT22;48463;43.604;3.872;2023-06-24T08:06:02;27.30;73.20
62424;DHT22;48463;43.604;3.872;2023-06-24T08:08:27;27.50;73.40
62424;DHT22;48463;43.604;3.872;2023-06-24T08:10:53;27.50;73.40
62424;DHT22;48463;43.604;3.872;2023-06-24T08:13:19;27.70;73.40
62424;DHT22;48463;43.604;3.872;2023-06-24T08:15:45;27.70;72.90
62424;DHT22;48463;43.604;3.872;2023-06-24T08:18:11;27.70;72.60
62424;DHT22;48463;43.604;3.872;2023-06-24T08:20:36;27.50;72.70
62424;DHT22;48463;43.604;3.872;2023-06-24T08:23:02;27.30;73.10
62424;DHT22;48463;43.604;3.872;2023-06-24T08:25:27;27.60;73.20
62424;DHT22;48463;43.604;3.872;2023-06-24T08:27:53;27.70;72.50
62424;DHT22;48463;43.604;3.872;2023-06-24T08:30:19;27.80;72.50
62424;DHT22;48463;43.604;3.872;2023-06-24T08:32:45;27.90;72.80
62424;DHT22;48463;43.604;3.872;2023-06-24T08:35:11;28.00;72.70
62424;DHT22;48463;43.604;3.872;2023-06-24T08:37:37;28.10;72.50
62424;DHT22;48463;43.604;3.872;2023-06-24T08:40:03;27.90;72.30
62424;DHT22;48463;43.604;3.872;2023-06-24T08:42:32;27.80;71.90
62424;DHT22;48463;43.604;3.872;2023-06-24T08:44:58;28.00;72.00
62424;DHT22;48463;43.604;3.872;2023-06-24T08:47:24;28.20;71.80
62424;DHT22;48463;43.604;3.872;2023-06-24T08:49:55;28.40;72.00
62424;DHT22;48463;43.604;3.872;2023-06-24T08:52:25;28.40;71.00
62424;DHT22;48463;43.604;3.872;2023-06-24T08:54:52;28.30;71.70
62424;DHT22;48463;43.604;3.872;2023-06-24T08:57:20;28.40;70.60
62424;DHT22;48463;43.604;3.872;2023-06-24T08:59:46;28.60;70.30
62424;DHT22;48463;43.604;3.872;2023-06-24T09:02:12;28.60;70.10
62424;DHT22;48463;43.604;3.872;2023-06-24T09:04:41;28.70;69.90
62424;DHT22;48463;43.604;3.872;2023-06-24T09:07:07;28.30;69.30
62424;DHT22;48463;43.604;3.872;2023-06-24T09:09:32;28.40;70.20
62424;DHT22;48463;43.604;3.872;2023-06-24T09:12:11;28.70;69.70
62424;DHT22;48463;43.604;3.872;2023-06-24T09:14:37;28.90;69.70
62424;DHT22;48463;43.604;3.872;2023-06-24T09:17:03;28.90;69.40
62424;DHT22;48463;43.604;3.872;2023-06-24T09:19:31;28.70;69.80
62424;DHT22;48463;43.604;3.872;2023-06-24T09:22:06;28.70;69.80
62424;DHT22;48463;43.604;3.872;2023-06-24T09:24:33;29.00;69.50
62424;DHT22;48463;43.604;3.872;2023-06-24T09:26:59;29.10;69.10
62424;DHT22;48463;43.604;3.872;2023-06-24T09:29:26;28.90;69.70
62424;DHT22;48463;43.604;3.872;2023-06-24T09:31:52;29.20;69.20
62424;DHT22;48463;43.604;3.872;2023-06-24T09:34:19;29.30;68.20
62424;DHT22;48463;43.604;3.872;2023-06-24T09:36:58;29.30;68.00
62424;DHT22;48463;43.604;3.872;2023-06-24T09:39:24;29.30;68.00
62424;DHT22;48463;43.604;3.872;2023-06-24T09:41:56;29.50;68.40
62424;DHT22;48463;43.604;3.872;2023-06-24T09:44:22;29.30;68.10
62424;DHT22;48463;43.604;3.872;2023-06-24T09:46:48;29.40;68.50
62424;DHT22;48463;43.604;3.872;2023-06-24T09:49:14;29.40;68.50
62424;DHT22;48463;43.604;3.872;2023-06-24T09:51:43;29.50;67.80
62424;DHT22;48463;43.604;3.872;2023-06-24T09:54:10;29.60;67.00
62424;DHT22;48463;43.604;3.872;2023-06-24T09:56:37;29.60;66.90
62424;DHT22;48463;43.604;3.872;2023-06-24T09:59:05;29.60;66.90
62424;DHT22;48463;43.604;3.872;2023-06-24T10:01:38;29.70;66.60
62424;DHT22;48463;43.604;3.872;2023-06-24T10:04:05;29.60;67.10
62424;DHT22;48463;43.604;3.872;2023-06-24T10:06:35;29.60;66.50
62424;DHT22;48463;43.604;3.872;2023-06-24T10:09:01;29.80;66.20
62424;DHT22;48463;43.604;3.872;2023-06-24T10:11:27;29.80;65.80
62424;DHT22;48463;43.604;3.872;2023-06-24T10:13:53;29.90;66.00
62424;DHT22;48463;43.604;3.872;2023-06-24T10:16:20;30.10;66.40
62424;DHT22;48463;43.604;3.872;2023-06-24T10:18:46;30.00;66.20
62424;DHT22;48463;43.604;3.872;2023-06-24T10:21:13;30.10;66.30
62424;DHT22;48463;43.604;3.872;2023-06-24T10:23:52;30.20;66.10
62424;DHT22;48463;43.604;3.872;2023-06-24T10:26:28;30.20;65.40
62424;DHT22;48463;43.604;3.872;2023-06-24T10:29:12;30.10;65.40
62424;DHT22;48463;43.604;3.872;2023-06-24T10:36:57;30.20;64.70
62424;DHT22;48463;43.604;3.872;2023-06-24T10:44:50;30.50;63.80
62424;DHT22;48463;43.604;3.872;2023-06-24T10:47:16;30.50;62.70
62424;DHT22;48463;43.604;3.872;2023-06-24T10:49:42;30.70;62.40
62424;DHT22;48463;43.604;3.872;2023-06-24T10:52:11;30.70;62.60
62424;DHT22;48463;43.604;3.872;2023-06-24T10:54:39;30.70;63.10
62424;DHT22;48463;43.604;3.872;2023-06-24T10:57:06;30.80;62.40
62424;DHT22;48463;43.604;3.872;2023-06-24T11:02:04;30.90;62.30
62424;DHT22;48463;43.604;3.872;2023-06-24T11:04:30;30.90;62.40
62424;DHT22;48463;43.604;3.872;2023-06-24T11:06:59;31.00;62.30
62424;DHT22;48463;43.604;3.872;2023-06-24T11:09:25;31.10;62.30
62424;DHT22;48463;43.604;3.872;2023-06-24T11:11:51;31.00;62.10
62424;DHT22;48463;43.604;3.872;2023-06-24T11:14:19;31.20;62.10
62424;DHT22;48463;43.604;3.872;2023-06-24T11:16:45;31.20;62.20
62424;DHT22;48463;43.604;3.872;2023-06-24T11:19:11;31.20;62.40
62424;DHT22;48463;43.604;3.872;2023-06-24T11:21:36;31.20;62.00
62424;DHT22;48463;43.604;3.872;2023-06-24T11:24:03;31.30;61.70
62424;DHT22;48463;43.604;3.872;2023-06-24T11:26:28;31.50;62.10
62424;DHT22;48463;43.604;3.872;2023-06-24T11:28:54;31.60;61.40
62424;DHT22;48463;43.604;3.872;2023-06-24T11:31:27;31.50;60.90
62424;DHT22;48463;43.604;3.872;2023-06-24T11:33:53;31.50;61.10
62424;DHT22;48463;43.604;3.872;2023-06-24T11:36:19;31.60;61.30
62424;DHT22;48463;43.604;3.872;2023-06-24T11:38:46;31.60;61.70
62424;DHT22;48463;43.604;3.872;2023-06-24T11:41:12;31.60;62.00
62424;DHT22;48463;43.604;3.872;2023-06-24T11:43:44;31.70;61.80
62424;DHT22;48463;43.604;3.872;2023-06-24T11:46:10;31.70;61.40
62424;DHT22;48463;43.604;3.872;2023-06-24T11:48:40;31.70;61.40
62424;DHT22;48463;43.604;3.872;2023-06-24T11:51:12;31.80;61.50
62424;DHT22;48463;43.604;3.872;2023-06-24T11:53:45;31.90;61.40
62424;DHT22;48463;43.604;3.872;2023-06-24T11:56:14;31.70;61.20
62424;DHT22;48463;43.604;3.872;2023-06-24T11:58:39;31.80;61.40
62424;DHT22;48463;43.604;3.872;2023-06-24T12:01:08;31.80;61.60
62424;DHT22;48463;43.604;3.872;2023-06-24T12:03:34;32.00;61.00
62424;DHT22;48463;43.604;3.872;2023-06-24T12:06:00;32.10;61.10
62424;DHT22;48463;43.604;3.872;2023-06-24T12:08:26;32.30;61.10
62424;DHT22;48463;43.604;3.872;2023-06-24T12:10:52;32.30;60.80
62424;DHT22;48463;43.604;3.872;2023-06-24T12:13:17;32.30;61.80
62424;DHT22;48463;43.604;3.872;2023-06-24T12:15:43;32.40;61.20
62424;DHT22;48463;43.604;3.872;2023-06-24T12:18:11;32.30;61.00
62424;DHT22;48463;43.604;3.872;2023-06-24T12:20:37;32.20;60.80
62424;DHT22;48463;43.604;3.872;2023-06-24T12:23:03;32.20;61.00
62424;DHT22;48463;43.604;3.872;2023-06-24T12:25:29;32.30;60.70
62424;DHT22;48463;43.604;3.872;2023-06-24T12:27:54;32.40;60.80
62424;DHT22;48463;43.604;3.872;2023-06-24T12:30:20;32.50;59.70
62424;DHT22;48463;43.604;3.872;2023-06-24T12:32:49;32.50;59.60
62424;DHT22;48463;43.604;3.872;2023-06-24T12:35:15;32.40;59.60
62424;DHT22;48463;43.604;3.872;2023-06-24T12:37:40;32.60;60.10
62424;DHT22;48463;43.604;3.872;2023-06-24T12:40:06;32.90;59.30
62424;DHT22;48463;43.604;3.872;2023-06-24T12:42:32;33.10;59.10
62424;DHT22;48463;43.604;3.872;2023-06-24T12:44:59;33.10;59.20
62424;DHT22;48463;43.604;3.872;2023-06-24T12:47:25;32.90;59.20
62424;DHT22;48463;43.604;3.872;2023-06-24T12:49:51;33.00;59.30
62424;DHT22;48463;43.604;3.872;2023-06-24T12:52:18;33.20;58.80
62424;DHT22;48463;43.604;3.872;2023-06-24T12:54:43;33.10;58.20
62424;DHT22;48463;43.604;3.872;2023-06-24T12:57:09;33.10;58.10
62424;DHT22;48463;43.604;3.872;2023-06-24T12:59:35;33.10;58.00
62424;DHT22;48463;43.604;3.872;2023-06-24T13:02:01;33.10;57.90
62424;DHT22;48463;43.604;3.872;2023-06-24T13:04:26;33.20;57.90
62424;DHT22;48463;43.604;3.872;2023-06-24T13:06:52;33.50;57.60
62424;DHT22;48463;43.604;3.872;2023-06-24T13:09:18;33.60;57.20
62424;DHT22;48463;43.604;3.872;2023-06-24T13:11:43;33.60;57.00
62424;DHT22;48463;43.604;3.872;2023-06-24T13:14:09;33.80;57.00
62424;DHT22;48463;43.604;3.872;2023-06-24T13:16:36;33.90;57.00
62424;DHT22;48463;43.604;3.872;2023-06-24T13:19:02;34.20;57.40
62424;DHT22;48463;43.604;3.872;2023-06-24T13:21:28;34.20;57.40
62424;DHT22;48463;43.604;3.872;2023-06-24T13:23:54;34.20;57.50
62424;DHT22;48463;43.604;3.872;2023-06-24T13:26:19;34.20;57.10
62424;DHT22;48463;43.604;3.872;2023-06-24T13:28:45;34.20;57.40
62424;DHT22;48463;43.604;3.872;2023-06-24T13:31:11;34.40;56.60
62424;DHT22;48463;43.604;3.872;2023-06-24T13:33:37;34.30;56.70
62424;DHT22;48463;43.604;3.872;2023-06-24T13:36:04;34.50;56.20
62424;DHT22;48463;43.604;3.872;2023-06-24T13:38:30;34.60;56.20
62424;DHT22;48463;43.604;3.872;2023-06-24T13:40:56;34.90;55.70
62424;DHT22;48463;43.604;3.872;2023-06-24T13:43:21;34.80;55.70
62424;DHT22;48463;43.604;3.872;2023-06-24T13:45:47;34.80;55.40
62424;DHT22;48463;43.604;3.872;2023-06-24T13:48:13;34.70;55.20
62424;DHT22;48463;43.604;3.872;2023-06-24T13:50:39;34.90;55.20
62424;DHT22;48463;43.604;3.872;2023-06-24T13:53:05;34.90;55.40
62424;DHT22;48463;43.604;3.872;2023-06-24T13:55:30;35.00;55.40
62424;DHT22;48463;43.604;3.872;2023-06-24T13:57:57;35.10;54.20
62424;DHT22;48463;43.604;3.872;2023-06-24T14:00:22;35.40;54.80
62424;DHT22;48463;43.604;3.872;2023-06-24T14:02:48;35.50;54.90
62424;DHT22;48463;43.604;3.872;2023-06-24T14:05:14;35.50;55.60
62424;DHT22;48463;43.604;3.872;2023-06-24T14:07:39;35.20;56.00
62424;DHT22;48463;43.604;3.872;2023-06-24T14:10:05;35.20;56.20
62424;DHT22;48463;43.604;3.872;2023-06-24T14:12:31;35.40;56.40
62424;DHT22;48463;43.604;3.872;2023-06-24T14:14:57;35.30;56.40
62424;DHT22;48463;43.604;3.872;2023-06-24T14:17:24;35.30;56.30
62424;DHT22;48463;43.604;3.872;2023-06-24T14:19:50;35.10;55.00
62424;DHT22;48463;43.604;3.872;2023-06-24T14:22:16;35.30;54.70
62424;DHT22;48463;43.604;3.872;2023-06-24T14:24:43;35.40;54.80
62424;DHT22;48463;43.604;3.872;2023-06-24T14:27:09;35.50;54.40
62424;DHT22;48463;43.604;3.872;2023-06-24T14:29:36;35.50;54.20
62424;DHT22;48463;43.604;3.872;2023-06-24T14:32:03;35.40;54.60
62424;DHT22;48463;43.604;3.872;2023-06-24T14:34:28;35.70;54.60
62424;DHT22;48463;43.604;3.872;2023-06-24T14:36:55;35.80;54.70
62424;DHT22;48463;43.604;3.872;2023-06-24T14:39:21;36.30;54.70
62424;DHT22;48463;43.604;3.872;2023-06-24T14:41:47;36.30;53.90
62424;DHT22;48463;43.604;3.872;2023-06-24T14:44:12;36.50;54.50
62424;DHT22;48463;43.604;3.872;2023-06-24T14:46:38;36.70;54.00
62424;DHT22;48463;43.604;3.872;2023-06-24T14:49:04;36.90;53.60
62424;DHT22;48463;43.604;3.872;2023-06-24T14:51:29;36.10;53.80
62424;DHT22;48463;43.604;3.872;2023-06-24T14:53:55;36.60;53.90
62424;DHT22;48463;43.604;3.872;2023-06-24T14:56:21;36.70;53.50
62424;DHT22;48463;43.604;3.872;2023-06-24T14:58:46;37.10;53.40
62424;DHT22;48463;43.604;3.872;2023-06-24T15:01:12;41.50;53.00
62424;DHT22;48463;43.604;3.872;2023-06-24T15:03:37;44.50;49.70
62424;DHT22;48463;43.604;3.872;2023-06-24T15:06:03;45.90;49.40
62424;DHT22;48463;43.604;3.872;2023-06-24T15:08:29;48.00;47.70
62424;DHT22;48463;43.604;3.872;2023-06-24T15:10:54;47.30;46.20
62424;DHT22;48463;43.604;3.872;2023-06-24T15:13:20;47.10;45.90
62424;DHT22;48463;43.604;3.872;2023-06-24T15:15:45;45.90;45.10
62424;DHT22;48463;43.604;3.872;2023-06-24T15:18:11;42.00;47.00
62424;DHT22;48463;43.604;3.872;2023-06-24T15:20:37;40.10;48.50
62424;DHT22;48463;43.604;3.872;2023-06-24T15:23:02;38.10;48.80
62424;DHT22;48463;43.604;3.872;2023-06-24T15:25:29;37.30;49.50
62424;DHT22;48463;43.604;3.872;2023-06-24T15:27:54;37.60;50.70
62424;DHT22;48463;43.604;3.872;2023-06-24T15:30:20;37.10;49.90
62424;DHT22;48463;43.604;3.872;2023-06-24T15:32:46;36.90;51.60
62424;DHT22;48463;43.604;3.872;2023-06-24T15:35:12;37.30;50.80
62424;DHT22;48463;43.604;3.872;2023-06-24T15:37:38;36.90;50.60
62424;DHT22;48463;43.604;3.872;2023-06-24T15:40:04;36.50;52.30
62424;DHT22;48463;43.604;3.872;2023-06-24T15:42:30;36.40;56.80
62424;DHT22;48463;43.604;3.872;2023-06-24T15:44:56;35.70;58.60
62424;DHT22;48463;43.604;3.872;2023-06-24T15:47:21;35.60;59.40
62424;DHT22;48463;43.604;3.872;2023-06-24T15:49:47;35.30;59.60
62424;DHT22;48463;43.604;3.872;2023-06-24T15:52:13;34.70;59.60